createdAt,value
2018-03-25T00:00:43.876Z,486.50
2018-03-25T00:03:13.576Z,486.50
2018-03-25T00:05:43.193Z,486.50
2018-03-25T00:08:12.728Z,486.50
2018-03-25T00:10:42.331Z,486.50
2018-03-25T00:13:13.480Z,486.50
2018-03-25T00:15:44.829Z,486.50
2018-03-25T00:18:14.560Z,486.50
2018-03-25T00:20:45.765Z,486.50
2018-03-25T00:23:15.496Z,486.50
2018-03-25T00:25:45.223Z,486.50
2018-03-25T00:28:16.276Z,486.50
2018-03-25T00:30:47.395Z,486.50
2018-03-25T00:33:17.070Z,486.50
2018-03-25T00:35:47.072Z,486.50
2018-03-25T00:38:16.854Z,486.50
2018-03-25T00:40:46.817Z,486.50
2018-03-25T00:43:16.406Z,486.50
2018-03-25T00:45:46.137Z,486.50
2018-03-25T00:48:15.895Z,486.50
2018-03-25T00:50:45.546Z,486.50
2018-03-25T00:53:16.698Z,486.50
2018-03-25T00:55:46.304Z,486.50
2018-03-25T00:58:16.104Z,486.50
2018-03-25T01:00:45.757Z,486.50
2018-03-25T01:03:15.537Z,486.50
2018-03-25T01:05:46.693Z,486.50
2018-03-25T01:08:17.800Z,486.50
2018-03-25T01:10:47.365Z,486.50
2018-03-25T01:13:16.948Z,486.50
2018-03-25T01:15:52.526Z,486.50
2018-03-25T01:18:23.979Z,486.50
2018-03-25T01:20:53.653Z,486.50
2018-03-25T01:23:23.412Z,486.50
2018-03-25T01:25:53.135Z,486.50
2018-03-25T01:28:22.800Z,486.50
2018-03-25T01:30:52.468Z,486.50
2018-03-25T01:33:22.164Z,486.50
2018-03-25T01:35:51.779Z,486.50
2018-03-25T01:38:22.885Z,486.50
2018-03-25T01:40:52.563Z,486.50
2018-03-25T01:43:23.656Z,486.50
2018-03-25T01:45:53.288Z,486.50
2018-03-25T01:48:22.919Z,486.50
2018-03-25T01:50:54.097Z,486.50
2018-03-25T01:53:23.741Z,486.50
2018-03-25T01:55:53.290Z,486.50
2018-03-25T01:58:22.909Z,486.50
2018-03-25T02:00:52.560Z,486.50
2018-03-25T02:03:22.718Z,486.50
2018-03-25T02:05:52.595Z,486.50
2018-03-25T02:08:22.216Z,486.50
2018-03-25T02:10:51.744Z,486.50
2018-03-25T02:13:21.759Z,486.50
2018-03-25T02:15:51.320Z,486.50
2018-03-25T02:18:21.929Z,486.50
2018-03-25T02:20:51.585Z,486.50
2018-03-25T02:23:21.388Z,486.50
2018-03-25T02:25:51.013Z,486.50
2018-03-25T02:28:22.166Z,486.50
2018-03-25T02:30:53.266Z,486.60
2018-03-25T02:33:22.965Z,486.60
2018-03-25T02:35:52.522Z,486.50
2018-03-25T02:38:22.296Z,486.50
2018-03-25T02:40:51.879Z,486.50
2018-03-25T02:43:21.488Z,486.50
2018-03-25T02:45:51.031Z,486.50
2018-03-25T02:48:22.149Z,486.50
2018-03-25T02:50:53.226Z,486.50
2018-03-25T02:53:24.391Z,486.50
2018-03-25T02:55:53.972Z,486.50
2018-03-25T02:58:23.696Z,486.50
2018-03-25T03:00:54.772Z,486.50
2018-03-25T03:03:24.328Z,486.50
2018-03-25T03:05:55.456Z,486.50
2018-03-25T03:08:25.489Z,486.50
2018-03-25T03:10:55.276Z,486.50
2018-03-25T03:13:24.838Z,486.50
2018-03-25T03:15:54.632Z,486.50
2018-03-25T03:18:24.245Z,486.50
2018-03-25T03:20:53.894Z,486.50
2018-03-25T03:23:23.582Z,486.50
2018-03-25T03:25:53.252Z,486.50
2018-03-25T03:28:22.889Z,486.50
2018-03-25T03:30:52.598Z,486.50
2018-03-25T03:33:22.299Z,486.50
2018-03-25T03:35:51.984Z,486.50
2018-03-25T03:38:21.614Z,486.60
2018-03-25T03:40:51.664Z,486.50
2018-03-25T03:43:21.269Z,486.50
2018-03-25T03:45:50.876Z,486.50
2018-03-25T03:48:20.759Z,486.50
2018-03-25T03:50:50.400Z,486.50
2018-03-25T03:53:21.752Z,486.50
2018-03-25T03:55:51.406Z,486.50
2018-03-25T03:58:21.190Z,486.50
2018-03-25T04:00:50.870Z,486.50
2018-03-25T04:03:20.673Z,486.50
2018-03-25T04:05:51.896Z,486.50
2018-03-25T04:08:21.522Z,486.50
2018-03-25T04:10:51.112Z,486.50
2018-03-25T04:13:20.784Z,486.50
2018-03-25T04:15:50.443Z,486.50
2018-03-25T04:18:20.137Z,486.50
2018-03-25T04:20:51.483Z,486.50
2018-03-25T04:23:21.187Z,486.50
2018-03-25T04:25:50.836Z,486.50
2018-03-25T04:28:20.516Z,486.50
2018-03-25T04:30:50.239Z,486.50
2018-03-25T04:33:19.932Z,486.50
2018-03-25T04:35:49.592Z,486.50
2018-03-25T04:38:20.704Z,486.50
2018-03-25T04:40:50.484Z,486.50
2018-03-25T04:43:20.244Z,486.50
2018-03-25T04:45:50.044Z,486.50
2018-03-25T04:48:19.805Z,486.50
2018-03-25T04:50:49.603Z,486.50
2018-03-25T04:53:19.280Z,486.50
2018-03-25T04:55:49.095Z,486.50
2018-03-25T04:58:18.777Z,486.50
2018-03-25T05:00:48.662Z,486.50
2018-03-25T05:03:18.327Z,486.50
2018-03-25T05:05:49.441Z,486.40
2018-03-25T05:08:19.143Z,486.50
2018-03-25T05:10:49.045Z,486.50
2018-03-25T05:13:18.761Z,486.50
2018-03-25T05:15:49.921Z,486.50
2018-03-25T05:18:19.586Z,486.50
2018-03-25T05:20:49.593Z,486.50
2018-03-25T05:23:19.137Z,486.50
2018-03-25T05:25:48.817Z,486.50
2018-03-25T05:28:18.441Z,486.50
2018-03-25T05:30:48.158Z,486.50
2018-03-25T05:33:17.930Z,486.50
2018-03-25T05:35:47.527Z,486.50
2018-03-25T05:38:17.274Z,486.50
2018-03-25T05:40:46.804Z,486.50
2018-03-25T05:43:16.480Z,486.50
2018-03-25T05:45:46.164Z,486.40
2018-03-25T05:48:15.905Z,486.50
2018-03-25T05:50:45.632Z,486.50
2018-03-25T05:53:15.261Z,486.50
2018-03-25T05:55:44.793Z,486.50
2018-03-25T05:58:14.448Z,486.50
2018-03-25T06:00:43.984Z,486.40
2018-03-25T06:03:13.607Z,486.50
2018-03-25T06:05:44.756Z,486.50
2018-03-25T06:08:16.095Z,486.50
2018-03-25T06:10:47.173Z,486.50
2018-03-25T06:13:16.868Z,486.50
2018-03-25T06:15:46.575Z,486.50
2018-03-25T06:18:16.204Z,486.50
2018-03-25T06:20:47.329Z,486.50
2018-03-25T06:23:16.975Z,486.50
2018-03-25T06:25:46.540Z,486.50
2018-03-25T06:28:16.076Z,486.50
2018-03-25T06:30:45.821Z,486.50
2018-03-25T06:33:17.028Z,486.50
2018-03-25T06:35:46.585Z,486.50
2018-03-25T06:38:17.692Z,486.50
2018-03-25T06:40:48.889Z,486.50
2018-03-25T06:43:18.536Z,486.50
2018-03-25T06:45:48.231Z,486.50
2018-03-25T06:48:19.356Z,486.50
2018-03-25T06:50:49.123Z,486.60
2018-03-25T06:53:18.788Z,486.50
2018-03-25T06:55:48.592Z,486.50
2018-03-25T06:58:18.237Z,486.60
2018-03-25T07:00:47.920Z,486.50
2018-03-25T07:03:17.435Z,486.60
2018-03-25T07:05:47.020Z,486.60
2018-03-25T07:08:16.644Z,486.60
2018-03-25T07:10:46.341Z,486.60
2018-03-25T07:13:16.047Z,486.60
2018-03-25T07:15:45.980Z,486.60
2018-03-25T07:18:15.521Z,486.60
2018-03-25T07:20:45.432Z,486.40
2018-03-25T07:23:15.173Z,461.50
2018-03-25T07:25:44.758Z,461.50
2018-03-25T07:28:15.899Z,461.40
2018-03-25T07:30:47.044Z,461.50
2018-03-25T07:33:16.700Z,461.50
2018-03-25T07:35:46.492Z,461.50
2018-03-25T07:38:16.179Z,461.60
2018-03-25T07:40:45.854Z,461.60
2018-03-25T07:43:15.496Z,461.70
2018-03-25T07:45:46.732Z,486.40
2018-03-25T07:48:17.894Z,486.60
2018-03-25T07:50:47.512Z,486.60
2018-03-25T07:53:17.244Z,486.60
2018-03-25T07:55:46.872Z,486.70
2018-03-25T07:58:16.542Z,486.80
2018-03-25T08:00:46.156Z,486.90
2018-03-25T08:03:15.940Z,487.00
2018-03-25T08:05:47.099Z,487.10
2018-03-25T08:08:16.813Z,487.10
2018-03-25T08:10:46.444Z,487.20
2018-03-25T08:13:16.149Z,487.30
2018-03-25T08:15:45.810Z,512.00
2018-03-25T08:18:15.399Z,512.00
2018-03-25T08:20:46.587Z,512.20
2018-03-25T08:23:16.188Z,512.20
2018-03-25T08:25:45.815Z,512.30
2018-03-25T08:28:15.439Z,512.40
2018-03-25T08:30:45.243Z,512.50
2018-03-25T08:33:14.990Z,512.50
2018-03-25T08:35:44.655Z,512.60
2018-03-25T08:38:14.266Z,512.60
2018-03-25T08:40:43.992Z,512.70
2018-03-25T08:43:13.765Z,512.80
2018-03-25T08:45:43.608Z,512.80
2018-03-25T08:48:13.518Z,512.90
2018-03-25T08:50:46.035Z,512.90
2018-03-25T08:53:16.037Z,512.90
2018-03-25T08:55:46.180Z,537.60
2018-03-25T08:58:17.727Z,537.60
2018-03-25T09:00:48.889Z,537.60
2018-03-25T09:03:18.625Z,537.60
2018-03-25T09:05:48.199Z,537.60
2018-03-25T09:08:19.385Z,537.70
2018-03-25T09:10:49.277Z,537.70
2018-03-25T09:13:18.895Z,537.70
2018-03-25T09:15:49.058Z,537.70
2018-03-25T09:18:20.336Z,537.70
2018-03-25T09:20:50.933Z,537.70
2018-03-25T09:23:21.191Z,537.70
2018-03-25T09:25:50.764Z,537.70
2018-03-25T09:28:21.951Z,537.70
2018-03-25T09:30:53.184Z,537.70
2018-03-25T09:33:24.430Z,537.70
2018-03-25T09:35:54.289Z,537.70
2018-03-25T09:38:24.007Z,537.70
2018-03-25T09:40:55.201Z,537.70
2018-03-25T09:43:25.016Z,537.70
2018-03-25T09:45:54.819Z,537.70
2018-03-25T09:48:24.665Z,537.70
2018-03-25T09:50:54.451Z,537.70
2018-03-25T09:53:24.140Z,537.70
2018-03-25T09:55:55.359Z,537.70
2018-03-25T09:58:25.276Z,537.70
2018-03-25T10:01:00.694Z,537.60
2018-03-25T10:03:31.258Z,537.70
2018-03-25T10:06:01.025Z,537.60
2018-03-25T10:08:32.191Z,537.60
2018-03-25T10:11:04.694Z,537.60
2018-03-25T10:13:34.623Z,537.60
2018-03-25T10:16:05.352Z,537.60
2018-03-25T10:18:38.753Z,537.60
2018-03-25T10:21:09.299Z,537.60
2018-03-25T10:23:42.771Z,537.60
2018-03-25T10:26:12.765Z,512.90
2018-03-25T10:28:42.974Z,512.90
2018-03-25T10:31:14.305Z,512.90
2018-03-25T10:33:45.728Z,512.90
2018-03-25T10:36:15.382Z,512.90
2018-03-25T10:38:45.138Z,512.90
2018-03-25T10:41:14.825Z,512.80
2018-03-25T10:43:46.101Z,512.80
2018-03-25T10:46:15.758Z,512.80
2018-03-25T10:48:49.175Z,512.80
2018-03-25T10:51:20.436Z,512.80
2018-03-25T10:53:50.046Z,512.80
2018-03-25T10:56:19.694Z,512.80
2018-03-25T10:58:49.432Z,512.70
2018-03-25T11:01:19.106Z,512.70
2018-03-25T11:03:48.709Z,512.70
2018-03-25T11:06:18.359Z,512.70
2018-03-25T11:08:49.703Z,512.60
2018-03-25T11:11:20.813Z,512.60
2018-03-25T11:13:50.516Z,512.60
2018-03-25T11:16:20.142Z,512.60
2018-03-25T11:18:49.752Z,512.60
2018-03-25T11:21:19.364Z,512.60
2018-03-25T11:23:49.081Z,512.60
2018-03-25T11:26:20.251Z,512.60
2018-03-25T11:28:51.488Z,512.50
2018-03-25T11:31:21.112Z,512.60
2018-03-25T11:33:50.838Z,512.50
2018-03-25T11:36:20.512Z,512.50
2018-03-25T11:38:50.248Z,512.50
2018-03-25T11:41:19.863Z,512.50
2018-03-25T11:43:53.305Z,512.50
2018-03-25T11:46:23.144Z,512.40
2018-03-25T11:48:54.254Z,512.40
2018-03-25T11:51:24.807Z,512.40
2018-03-25T11:53:56.911Z,512.40
2018-03-25T11:56:27.826Z,512.30
2018-03-25T11:58:57.583Z,512.30
2018-03-25T12:01:27.286Z,512.30
2018-03-25T12:03:57.084Z,512.30
2018-03-25T12:06:27.710Z,512.30
2018-03-25T12:08:57.343Z,512.20
2018-03-25T12:11:26.990Z,512.20
2018-03-25T12:13:56.639Z,512.20
2018-03-25T12:16:26.751Z,512.20
2018-03-25T12:18:57.948Z,512.20
2018-03-25T12:21:29.345Z,512.20
2018-03-25T12:24:00.623Z,512.20
2018-03-25T12:26:31.841Z,512.20
2018-03-25T12:29:01.838Z,512.20
2018-03-25T12:31:32.336Z,512.20
2018-03-25T12:34:02.784Z,512.10
2018-03-25T12:36:32.518Z,512.10
2018-03-25T12:39:02.242Z,512.10
2018-03-25T12:41:33.473Z,512.10
2018-03-25T12:44:04.595Z,512.10
2018-03-25T12:46:35.760Z,512.10
2018-03-25T12:49:05.457Z,512.10
2018-03-25T12:51:35.130Z,512.10
2018-03-25T12:54:04.855Z,512.00
2018-03-25T12:56:34.484Z,512.00
2018-03-25T12:59:04.201Z,512.00
2018-03-25T13:01:33.995Z,512.00
2018-03-25T13:04:03.747Z,512.00
2018-03-25T13:06:33.674Z,512.00
2018-03-25T13:09:03.884Z,512.10
2018-03-25T13:11:33.507Z,512.10
2018-03-25T13:14:04.940Z,512.00
2018-03-25T13:16:35.387Z,512.10
2018-03-25T13:19:05.033Z,512.00
2018-03-25T13:21:34.814Z,512.00
2018-03-25T13:24:04.428Z,512.00
2018-03-25T13:26:34.104Z,512.00
2018-03-25T13:29:04.592Z,512.00
2018-03-25T13:31:34.169Z,512.00
2018-03-25T13:34:03.803Z,512.00
2018-03-25T13:36:33.532Z,512.00
2018-03-25T13:39:03.204Z,512.00
2018-03-25T13:41:33.368Z,512.00
2018-03-25T13:44:03.148Z,512.00
2018-03-25T13:46:32.860Z,512.00
2018-03-25T13:49:02.557Z,512.00
2018-03-25T13:51:32.256Z,512.00
2018-03-25T13:54:01.954Z,512.00
2018-03-25T13:56:31.816Z,512.00
2018-03-25T13:59:01.820Z,512.00
2018-03-25T14:01:31.428Z,512.00
2018-03-25T14:04:01.032Z,512.00
2018-03-25T14:06:30.736Z,512.00
2018-03-25T14:09:00.483Z,512.00
2018-03-25T14:11:31.799Z,512.00
2018-03-25T14:14:01.491Z,512.00
2018-03-25T14:16:31.157Z,512.00
2018-03-25T14:19:00.756Z,512.00
2018-03-25T14:21:30.472Z,487.30
2018-03-25T14:24:01.732Z,487.30
2018-03-25T14:26:32.867Z,487.30
2018-03-25T14:29:03.981Z,487.30
2018-03-25T14:31:33.960Z,487.30
2018-03-25T14:34:03.751Z,487.30
2018-03-25T14:36:34.153Z,487.30
2018-03-25T14:39:05.472Z,487.30
2018-03-25T14:41:35.070Z,487.30
2018-03-25T14:44:04.803Z,487.30
2018-03-25T14:46:35.955Z,487.30
2018-03-25T14:49:07.123Z,487.30
2018-03-25T14:51:36.865Z,487.30
2018-03-25T14:54:06.542Z,487.30
2018-03-25T14:56:36.168Z,487.30
2018-03-25T14:59:05.998Z,487.30
2018-03-25T15:01:35.582Z,487.30
2018-03-25T15:04:05.184Z,487.30
2018-03-25T15:06:35.655Z,487.30
2018-03-25T15:09:05.338Z,487.30
2018-03-25T15:11:35.102Z,487.30
2018-03-25T15:14:06.129Z,487.30
2018-03-25T15:16:35.810Z,487.30
2018-03-25T15:19:05.442Z,487.30
2018-03-25T15:21:35.118Z,487.30
2018-03-25T15:24:04.729Z,487.30
2018-03-25T15:26:34.464Z,487.30
2018-03-25T15:29:04.036Z,487.30
2018-03-25T15:31:35.222Z,487.30
2018-03-25T15:34:06.460Z,487.30
2018-03-25T15:36:37.781Z,487.30
2018-03-25T15:39:07.972Z,487.30
2018-03-25T15:41:38.171Z,487.30
2018-03-25T15:44:09.287Z,487.30
2018-03-25T15:46:41.054Z,487.30
2018-03-25T15:49:11.128Z,487.30
2018-03-25T15:51:40.892Z,487.30
2018-03-25T15:54:11.294Z,487.30
2018-03-25T15:56:43.481Z,487.30
2018-03-25T15:59:13.689Z,487.30
2018-03-25T16:01:43.861Z,487.30
2018-03-25T16:04:14.367Z,487.30
2018-03-25T16:06:44.694Z,487.30
2018-03-25T16:09:15.062Z,487.30
2018-03-25T16:11:45.540Z,487.30
2018-03-25T16:14:15.707Z,487.30
2018-03-25T16:16:47.233Z,487.30
2018-03-25T16:19:18.383Z,487.30
2018-03-25T16:21:48.396Z,487.30
2018-03-25T16:24:18.487Z,487.30
2018-03-25T16:26:48.682Z,487.30
2018-03-25T16:29:18.372Z,487.10
2018-03-25T16:31:48.036Z,487.30
2018-03-25T16:34:17.712Z,487.30
2018-03-25T16:36:47.344Z,487.30
2018-03-25T16:39:17.010Z,487.30
2018-03-25T16:41:46.664Z,487.30
2018-03-25T16:44:16.302Z,487.30
2018-03-25T16:46:45.963Z,487.30
2018-03-25T16:49:16.000Z,487.30
2018-03-25T16:51:47.225Z,487.30
2018-03-25T16:54:16.900Z,487.30
2018-03-25T16:56:46.487Z,487.30
2018-03-25T16:59:16.102Z,487.30
2018-03-25T17:01:45.729Z,487.30
2018-03-25T17:04:17.009Z,487.20
2018-03-25T17:06:48.219Z,487.20
2018-03-25T17:09:17.874Z,487.30
2018-03-25T17:11:47.675Z,487.20
2018-03-25T17:14:17.380Z,487.20
2018-03-25T17:16:47.225Z,487.20
2018-03-25T17:19:18.300Z,487.10
2018-03-25T17:21:48.233Z,487.10
2018-03-25T17:24:17.919Z,487.00
2018-03-25T17:26:49.109Z,486.80
2018-03-25T17:29:19.203Z,486.80
2018-03-25T17:31:48.984Z,486.70
2018-03-25T17:34:18.588Z,486.50
2018-03-25T17:36:48.265Z,486.40
2018-03-25T17:39:18.096Z,461.50
2018-03-25T17:41:47.847Z,461.40
2018-03-25T17:44:17.753Z,461.40
2018-03-25T17:46:49.107Z,461.20
2018-03-25T17:49:18.890Z,461.20
2018-03-25T17:51:48.551Z,461.20
2018-03-25T17:54:18.407Z,461.20
2018-03-25T17:56:48.018Z,461.30
2018-03-25T17:59:18.132Z,461.40
2018-03-25T18:01:48.220Z,461.40
2018-03-25T18:04:18.150Z,461.40
2018-03-25T18:06:48.013Z,461.50
2018-03-25T18:09:17.800Z,461.50
2018-03-25T18:11:47.487Z,461.60
2018-03-25T18:14:17.344Z,461.60
2018-03-25T18:16:47.031Z,461.70
2018-03-25T18:19:16.860Z,461.70
2018-03-25T18:21:46.732Z,461.70
2018-03-25T18:24:16.434Z,461.70
2018-03-25T18:26:46.324Z,486.40
2018-03-25T18:29:16.279Z,486.40
2018-03-25T18:31:46.052Z,486.40
2018-03-25T18:34:16.158Z,486.40
2018-03-25T18:36:47.366Z,486.40
2018-03-25T18:39:19.075Z,486.40
2018-03-25T18:41:50.245Z,486.50
2018-03-25T18:44:20.124Z,486.50
2018-03-25T18:46:49.840Z,486.50
2018-03-25T18:49:19.611Z,486.50
2018-03-25T18:51:49.380Z,486.50
2018-03-25T18:54:19.071Z,486.50
2018-03-25T18:56:48.791Z,486.60
2018-03-25T18:59:20.253Z,486.60
2018-03-25T19:01:49.887Z,486.60
2018-03-25T19:04:21.135Z,486.60
2018-03-25T19:06:51.442Z,486.60
2018-03-25T19:09:21.217Z,486.60
2018-03-25T19:11:50.910Z,486.60
2018-03-25T19:14:22.119Z,486.60
2018-03-25T19:16:51.767Z,486.60
2018-03-25T19:19:21.580Z,486.60
2018-03-25T19:21:51.333Z,486.60
2018-03-25T19:24:21.335Z,486.60
2018-03-25T19:26:50.992Z,486.60
2018-03-25T19:29:22.256Z,486.60
2018-03-25T19:31:52.460Z,486.70
2018-03-25T19:34:22.389Z,486.70
2018-03-25T19:36:52.328Z,486.70
2018-03-25T19:39:23.660Z,486.70
2018-03-25T19:41:53.435Z,486.70
2018-03-25T19:44:23.067Z,486.70
2018-03-25T19:46:52.997Z,486.70
2018-03-25T19:49:22.609Z,486.70
2018-03-25T19:51:52.376Z,486.70
2018-03-25T19:54:23.564Z,486.70
2018-03-25T19:56:53.180Z,486.70
2018-03-25T19:59:22.856Z,486.70
2018-03-25T20:01:53.188Z,486.70
2018-03-25T20:04:22.948Z,486.70
2018-03-25T20:06:52.507Z,486.70
2018-03-25T20:09:22.120Z,486.70
2018-03-25T20:11:51.831Z,486.70
2018-03-25T20:14:23.153Z,486.70
2018-03-25T20:16:53.119Z,486.70
2018-03-25T20:19:24.150Z,486.70
2018-03-25T20:21:56.036Z,486.80
2018-03-25T20:24:26.346Z,486.80
2018-03-25T20:26:56.379Z,486.70
2018-03-25T20:29:26.173Z,486.80
2018-03-25T20:31:55.901Z,486.70
2018-03-25T20:34:27.064Z,486.70
2018-03-25T20:36:56.747Z,486.80
2018-03-25T20:39:26.435Z,486.70
2018-03-25T20:41:56.214Z,486.80
2018-03-25T20:44:27.689Z,486.80
2018-03-25T20:46:57.401Z,486.80
2018-03-25T20:49:26.981Z,486.70
2018-03-25T20:51:58.176Z,486.70
2018-03-25T20:54:27.792Z,486.70
2018-03-25T20:56:57.502Z,486.70
2018-03-25T20:59:28.983Z,486.70
2018-03-25T21:02:00.182Z,486.70
2018-03-25T21:04:30.083Z,486.80
2018-03-25T21:06:59.749Z,486.80
2018-03-25T21:09:29.657Z,486.70
2018-03-25T21:11:59.346Z,486.80
2018-03-25T21:14:30.860Z,486.80
2018-03-25T21:17:00.844Z,486.80
2018-03-25T21:19:31.338Z,486.80
2018-03-25T21:22:00.957Z,486.80
2018-03-25T21:24:32.357Z,486.80
2018-03-25T21:27:02.160Z,486.80
2018-03-25T21:29:33.556Z,486.80
2018-03-25T21:32:03.252Z,486.80
2018-03-25T21:34:33.345Z,486.80
2018-03-25T21:37:03.080Z,486.80
2018-03-25T21:39:32.817Z,486.80
2018-03-25T21:42:02.573Z,486.80
2018-03-25T21:44:32.248Z,486.80
2018-03-25T21:47:02.350Z,486.80
2018-03-25T21:50:29.143Z,486.80
2018-03-25T21:53:00.719Z,486.80
2018-03-25T21:55:32.253Z,486.80
2018-03-25T21:58:04.205Z,486.80
2018-03-25T22:00:35.789Z,486.80
2018-03-25T22:03:07.423Z,486.80
2018-03-25T22:08:09.596Z,486.80
2018-03-25T22:10:41.135Z,486.80
2018-03-25T22:13:12.796Z,486.80
2018-03-25T22:15:44.418Z,486.80
2018-03-25T22:18:16.088Z,486.80
2018-03-25T22:20:47.683Z,486.80
2018-03-25T22:23:19.140Z,486.80
2018-03-25T22:28:21.500Z,486.80
2018-03-25T22:30:53.044Z,486.80
2018-03-25T22:33:24.776Z,486.80
2018-03-25T22:35:56.636Z,486.80
2018-03-25T22:38:28.210Z,486.80
2018-03-25T22:40:59.854Z,486.80
2018-03-25T22:43:31.836Z,486.80
2018-03-25T22:46:03.794Z,486.80
2018-03-25T22:48:35.272Z,486.80
2018-03-25T22:51:06.891Z,486.80
2018-03-25T22:53:38.433Z,486.80
2018-03-25T22:58:40.788Z,486.80
2018-03-25T23:01:12.239Z,486.80
2018-03-25T23:03:43.799Z,486.80
2018-03-25T23:11:16.500Z,486.80
2018-03-25T23:13:48.007Z,486.80
2018-03-25T23:16:19.493Z,486.80
2018-03-25T23:18:50.987Z,486.80
2018-03-25T23:21:22.813Z,486.80
2018-03-25T23:23:54.305Z,486.80
2018-03-25T23:26:26.021Z,486.80
2018-03-25T23:28:57.651Z,486.80
2018-03-25T23:31:29.149Z,486.80
2018-03-25T23:34:00.672Z,486.80
2018-03-25T23:36:32.380Z,486.80
2018-03-25T23:39:03.916Z,486.80
2018-03-25T23:41:35.374Z,486.80
2018-03-25T23:44:07.107Z,486.80
2018-03-25T23:46:38.642Z,486.80
2018-03-25T23:49:12.610Z,486.80
2018-03-25T23:51:44.785Z,486.80
2018-03-25T23:54:17.337Z,486.80
2018-03-25T23:56:48.953Z,486.80
